• Join FlightAware (Why Join?)
  • Login
  • US Flag 
03:04PM EST


 

Airport Tracker/Info


-or-


 

Live Flight TrackerFlight Track Log ✈ VH-VQB ✈ 21-Apr-2013 ✈ YSSY / SYD - YMML / MEL

Flight Track Log - Related Links

Times and Time Zones

All times are in EDT time to prevent confusion due to time zone crossing. See the VH-VQB flight status page for this flight to view local times or setup timezone preferences in your user account.

Time Position Orientation Groundspeed Altitude Reporting Facility
EDT Latitude Longitude Course Direction KTS MPH feet Rate Location/Type
08:09PM -33.9940 151.1796 188° South 180 207 2,100  Level Aus ATC (RADAR)
08:09PM -34.0091 151.1772 188° South 205 236 2,400 2,040 Climbing Aus ATC (RADAR)
08:10PM -34.0496 151.1807 176° South 255 293 3,800 2,040 Climbing Aus ATC (RADAR)
08:10PM -34.0670 151.1860 197° South 288 331 4,100 2,400 Climbing FlightAware
08:11PM -34.1382 151.2107 164° South 321 369 6,400 2,820 Climbing Aus ATC (RADAR)
08:12PM -34.1897 151.1911 197° South 334 384 8,100 3,060 Climbing Aus ATC (RADAR)
08:12PM -34.1960 151.1820 181° South 336 387 8,700 3,960 Climbing FlightAware
08:12PM -34.2390 151.1360 221° Southwest 321 369 11,400 3,780 Climbing FlightAware
08:13PM -34.2908 151.0812 221° Southwest 319 367 13,800 3,180 Climbing Aus ATC (RADAR)
08:13PM -34.2920 151.0790 221° Southwest 325 374 13,800 2,400 Level FlightAware
08:14PM -34.3370 151.0310 221° Southwest 329 379 15,600 3,060 Climbing FlightAware
08:14PM -34.3717 150.9944 221° Southwest 326 375 17,100 2,700 Climbing Aus ATC (RADAR)
08:15PM -34.3860 150.9790 221° Southwest 334 384 17,400 2,400 Climbing FlightAware
08:15PM -34.4129 150.9496 221° Southwest 333 383 18,500 2,640 Climbing Aus ATC (RADAR)
08:15PM -34.4370 150.9230 221° Southwest 336 387 19,400 2,400 Climbing FlightAware
08:16PM -34.4837 150.8724 221° Southwest 336 387 20,900 2,220 Climbing Aus ATC (RADAR)
08:16PM -34.4850 150.8710 221° Southwest 348 400 20,900 2,040 Level FlightAware
08:16PM -34.5260 150.8264 221° Southwest 343 395 22,100 1,980 Climbing Aus ATC (RADAR)
08:17PM -34.5390 150.8120 221° Southwest 348 400 22,400 1,800 Climbing FlightAware
08:17PM -34.5860 150.7452 221° Southwest 348 400 23,800 1,620 Climbing Aus ATC (RADAR)
08:17PM -34.5780 150.7580 221° Southwest 356 410 23,500 1,680 Descending FlightAware
08:18PM -34.6206 150.6878 221° Southwest 352 405 24,800 1,860 Climbing Aus ATC (RADAR)
08:18PM -34.6280 150.6760 221° Southwest 361 415 24,900 1,380 Climbing FlightAware
08:19PM -34.6660 150.6120 234° Southwest 366 421 26,000 1,800 Climbing FlightAware
08:19PM -34.6913 150.5705 234° Southwest 363 418 26,700 1,620 Climbing Aus ATC (RADAR)
08:19PM -34.7080 150.5430 234° Southwest 370 426 27,100 1,440 Climbing FlightAware
08:20PM -34.7490 150.4740 234° Southwest 372 428 28,200 1,860 Climbing FlightAware
08:21PM -34.7780 150.4257 234° Southwest 366 421 29,100 1,440 Climbing Aus ATC (RADAR)
08:21PM -34.7950 150.3970 234° Southwest 380 437 29,300 960 Climbing FlightAware
08:22PM -34.8390 150.3240 234° Southwest 386 444 30,100 1,200 Climbing FlightAware
08:22PM -34.8870 150.2440 234° Southwest 391 450 31,000 1,380 Climbing FlightAware
08:23PM -34.9137 150.1982 234° Southwest 381 438 31,700 1,620 Climbing Aus ATC (RADAR)
08:23PM -34.9280 150.1740 234° Southwest 384 442 32,100 1,440 Climbing FlightAware
08:24PM -34.9740 150.0960 234° Southwest 381 438 33,200 1,260 Climbing FlightAware
08:24PM -35.0160 150.0250 234° Southwest 384 442 33,900 1,380 Climbing FlightAware
08:25PM -35.0570 149.9560 234° Southwest 371 427 35,100 1,860 Climbing FlightAware
08:25PM -35.0778 149.9211 234° Southwest 361 415 35,700 1,200 Climbing Aus ATC (RADAR)
08:26PM -35.1020 149.8800 234° Southwest 366 421 36,000 1,020 Climbing FlightAware
08:26PM -35.1410 149.8140 234° Southwest 359 413 36,900 1,020 Climbing FlightAware
08:27PM -35.1753 149.7548 234° Southwest 353 406 37,300 480 Climbing Aus ATC (RADAR)
08:27PM -35.1850 149.7390 234° Southwest 364 419 37,300 480 Level FlightAware
08:28PM -35.2097 149.6962 234° Southwest 357 411 37,600 420 Climbing Aus ATC (RADAR)
08:28PM -35.2240 149.6720 234° Southwest 367 422 37,600 240 Level FlightAware
08:28PM -35.2542 149.6198 234° Southwest 364 419 37,800 300 Climbing Aus ATC (RADAR)
08:29PM -35.2640 149.6040 234° Southwest 373 429 37,800 480 Level FlightAware
08:29PM -35.2894 149.5597 234° Southwest 368 423 38,100 240 Climbing Aus ATC (RADAR)
08:29PM -35.3100 149.5260 234° Southwest 381 438 38,000  Descending FlightAware
08:30PM -35.3508 149.4545 234° Southwest 378 435 38,100  Climbing Aus ATC (RADAR)
08:30PM -35.3500 149.4570 234° Southwest 384 442 38,000 -180 Descending FlightAware
08:31PM -35.3970 149.3760 235° Southwest 384 442 38,000  Level FlightAware
08:31PM -35.4380 149.3040 235° Southwest 384 442 38,000 60 Level FlightAware
08:32PM -35.4591 149.2688 235° Southwest 378 435 38,100  Climbing Aus ATC (RADAR)
08:32PM -35.4790 149.2350 235° Southwest 384 442 38,000 -120 Descending FlightAware
08:33PM -35.5250 149.1530 235° Southwest 384 442 38,000 60 Level FlightAware
08:33PM -35.5562 149.0997 235° Southwest 380 437 38,100  Climbing Aus ATC (RADAR)
08:33PM -35.5640 149.0860 235° Southwest 384 442 38,000  Descending FlightAware
08:34PM -35.5921 149.0374 235° Southwest 380 437 38,100  Climbing Aus ATC (RADAR)
08:34PM -35.6050 149.0150 235° Southwest 385 443 38,000 -120 Descending FlightAware
08:35PM -35.6540 148.9310 234° Southwest 385 443 38,000 60 Level FlightAware
08:35PM -35.6896 148.8679 234° Southwest 381 438 38,100  Climbing Aus ATC (RADAR)
08:36PM -35.6940 148.8600 234° Southwest 386 444 38,000  Descending FlightAware
08:36PM -35.7252 148.8049 234° Southwest 382 440 38,100  Climbing Aus ATC (RADAR)
08:36PM -35.7400 148.7800 234° Southwest 385 443 38,000  Descending FlightAware
08:37PM -35.7811 148.7065 234° Southwest 380 437 38,100  Climbing Aus ATC (RADAR)
08:37PM -35.7820 148.7060 234° Southwest 386 444 38,000  Descending FlightAware
08:37PM -35.8169 148.6436 234° Southwest 381 438 38,100  Climbing Aus ATC (RADAR)
08:38PM -35.8280 148.6250 234° Southwest 386 444 38,000 -120 Descending FlightAware
08:38PM -35.8690 148.5540 235° Southwest 385 443 38,000  Level FlightAware
08:39PM -35.9090 148.4820 236° Southwest 385 443 38,000  Level FlightAware
08:40PM -35.9490 148.4100 236° Southwest 385 443 38,000 60 Level FlightAware
08:40PM -35.9744 148.3647 236° Southwest 380 437 38,100 120 Climbing Aus ATC (RADAR)
08:40PM -35.9897 148.3380 235° Southwest 378 435 38,100 -300 Level Aus ATC (RADAR)
08:40PM -35.9930 148.3330 235° Southwest 379 436 38,000  Descending FlightAware
08:41PM -36.0251 148.2752 235° Southwest 378 435 38,100  Climbing Aus ATC (RADAR)
08:41PM -36.0480 148.2360 235° Southwest 375 432 38,000  Descending FlightAware
08:42PM -36.0798 148.1767 235° Southwest 376 433 38,100  Climbing Aus ATC (RADAR)
08:42PM -36.1144 148.1148 235° Southwest 374 430 38,000 -120 Descending Aus ATC (RADAR)
08:43PM -36.1470 148.0590 235° Southwest 373 429 38,000  Level FlightAware
08:43PM -36.1742 148.0088 235° Southwest 374 430 38,000  Level Aus ATC (RADAR)
08:44PM -36.2089 147.9464 235° Southwest 375 432 38,000  Level Aus ATC (RADAR)
08:44PM -36.2200 147.9270 235° Southwest 380 437 38,000 60 Level FlightAware
08:45PM -36.2878 147.8029 235° Southwest 376 433 38,100  Climbing Aus ATC (RADAR)
08:45PM -36.2910 147.8000 235° Southwest 376 433 38,000  Descending FlightAware
08:46PM -36.3373 147.7131 235° Southwest 376 433 38,100  Climbing Aus ATC (RADAR)
08:47PM -36.3600 147.6740 235° Southwest 376 433 38,000  Descending FlightAware
08:47PM -36.3823 147.6328 235° Southwest 376 433 38,100 60 Climbing Aus ATC (RADAR)
08:47PM -36.4166 147.5694 236° Southwest 377 434 38,100 -120 Level Aus ATC (RADAR)
08:48PM -36.4440 147.5220 236° Southwest 379 436 38,000  Descending FlightAware
08:48PM -36.4709 147.4710 236° Southwest 375 432 38,100  Climbing Aus ATC (RADAR)
08:49PM -36.4830 147.4500 236° Southwest 372 428 38,000  Descending FlightAware
08:49PM -36.5192 147.3820 236° Southwest 372 428 38,100  Climbing Aus ATC (RADAR)
08:49PM -36.5260 147.3730 236° Southwest 376 433 38,000 -180 Descending FlightAware
08:50PM -36.5660 147.3000 236° Southwest 378 435 38,000 60 Level FlightAware
08:50PM -36.5826 147.2655 236° Southwest 375 432 38,100 180 Climbing Aus ATC (RADAR)
08:51PM -36.5979 147.2391 234° Southwest 375 432 38,100 -300 Level Aus ATC (RADAR)
08:51PM -36.6060 147.2260 234° Southwest 377 434 38,000  Descending FlightAware
08:51PM -36.6320 147.1761 234° Southwest 375 432 38,100 120 Climbing Aus ATC (RADAR)
08:51PM -36.6500 147.1450 234° Southwest 373 429 38,100  Level FlightAware
08:52PM -36.6894 147.0701 234° Southwest 367 422 38,100 -180 Level Aus ATC (RADAR)
08:52PM -36.6880 147.0750 234° Southwest 370 426 38,000  Descending FlightAware
08:53PM -36.7227 147.0083 234° Southwest 366 421 38,100  Climbing Aus ATC (RADAR)
08:53PM -36.7310 146.9960 234° Southwest 367 422 38,000 -120 Descending FlightAware
08:54PM -36.7690 146.9260 236° Southwest 361 415 38,000 -600 Level FlightAware
08:54PM -36.8060 146.8580 236° Southwest 348 400 37,200 -1,740 Descending FlightAware
08:55PM -36.8450 146.7840 237° Southwest 343 395 35,600 -2,400 Descending FlightAware
08:55PM -36.8594 146.7555 237° Southwest 343 395 34,800 -4,020 Descending Aus ATC (RADAR)
08:55PM -36.8729 146.7303 236° Southwest 349 402 33,600 -4,320 Descending Aus ATC (RADAR)
08:56PM -36.8800 146.7190 236° Southwest 365 420 33,000 -4,680 Descending FlightAware
08:56PM -36.9062 146.6675 236° Southwest 377 434 30,900 -4,440 Descending Aus ATC (RADAR)
08:56PM -36.9240 146.6360 236° Southwest 396 456 29,700 -2,940 Descending FlightAware
08:57PM -36.9660 146.5570 236° Southwest 397 457 28,000 -2,100 Descending FlightAware
08:58PM -37.0039 146.4871 236° Southwest 398 458 27,100 -1,500 Descending Aus ATC (RADAR)
08:58PM -37.0070 146.4820 236° Southwest 404 465 27,000 -1,320 Descending FlightAware
08:58PM -37.0550 146.3920 236° Southwest 422 486 26,000 -1,380 Descending FlightAware
08:59PM -37.0990 146.3090 236° Southwest 430 495 25,100 -1,320 Descending FlightAware
09:00PM -37.1480 146.2160 237° Southwest 424 488 24,200 -1,200 Descending FlightAware
09:00PM -37.1819 146.1514 237° Southwest 424 488 23,600 -1,200 Descending Aus ATC (RADAR)
09:01PM -37.1900 146.1370 237° Southwest 428 493 23,400 -1,620 Descending FlightAware
09:01PM -37.2359 146.0479 237° Southwest 426 490 22,300 -1,680 Descending Aus ATC (RADAR)
09:01PM -37.2350 146.0510 237° Southwest 424 488 22,300 -2,760 Level FlightAware
09:02PM -37.2820 145.9620 236° Southwest 413 475 20,200 -2,760 Descending FlightAware
09:03PM -37.3240 145.8820 237° Southwest 403 464 18,400 -2,820 Descending FlightAware
09:03PM -37.3650 145.8040 237° Southwest 397 457 16,500 -2,820 Descending FlightAware
09:04PM -37.3910 145.7536 237° Southwest 394 453 15,400 -2,700 Descending Aus ATC (RADAR)
09:04PM -37.4090 145.7200 237° Southwest 385 443 14,500 -2,580 Descending FlightAware
09:05PM -37.4480 145.6440 237° Southwest 376 433 12,800 -2,700 Descending FlightAware
09:05PM -37.4868 145.5706 237° Southwest 371 427 11,000 -2,700 Descending Aus ATC (RADAR)
09:05PM -37.4910 145.5640 237° Southwest 366 421 10,800 -2,760 Descending FlightAware
09:06PM -37.5140 145.5190 237° Southwest 367 422 9,600 -2,460 Descending FlightAware
09:06PM -37.5332 145.4821 237° Southwest 365 420 9,000 -1,200 Descending Aus ATC (RADAR)
09:06PM -37.5410 145.4670 237° Southwest 343 395 9,000 -1,020 Level FlightAware
09:07PM -37.5620 145.4270 236° Southwest 328 377 8,400 -2,340 Descending FlightAware
09:07PM -37.5838 145.3850 236° Southwest 332 382 7,100 -2,400 Descending Aus ATC (RADAR)
09:07PM -37.5880 145.3780 236° Southwest 332 382 7,200 -540 Climbing FlightAware
09:08PM -37.6126 145.3304 236° Southwest 320 368 6,800 -840 Descending Aus ATC (RADAR)
09:08PM -37.6110 145.3330 236° Southwest 306 352 6,800 -720 Level FlightAware
09:08PM -37.6300 145.2970 236° Southwest 287 330 6,500 -780 Descending FlightAware
09:09PM -37.6521 145.2544 236° Southwest 279 321 6,100 -1,020 Descending Aus ATC (RADAR)
09:09PM -37.6520 145.2550 236° Southwest 270 311 6,000 -1,620 Descending FlightAware
09:09PM -37.6690 145.2220 237° Southwest 269 310 5,400 -1,200 Descending FlightAware
09:09PM -37.6780 145.2040 238° Southwest 259 298 5,200 -720 Descending FlightAware
09:10PM -37.6970 145.1680 236° Southwest 240 276 4,900 -540 Descending FlightAware
09:10PM -37.7150 145.1330 237° Southwest 223 257 4,700 -660 Descending FlightAware
09:11PM -37.7260 145.1050 244° Southwest 209 241 4,300 -1,140 Descending FlightAware
09:11PM -37.7267 145.0801 244° Southwest 208 239 3,900 -1,020 Descending Aus ATC (RADAR)
09:11PM -37.7270 145.0690 244° Southwest 200 230 3,800 -840 Descending FlightAware
09:12PM -37.7280 145.0400 267° West 199 229 3,400 -900 Descending FlightAware
09:12PM -37.7280 145.0060 270° West 192 221 3,000 -900 Descending FlightAware
09:13PM -37.7290 144.9790 267° West 192 221 2,600 -480 Descending FlightAware
09:13PM -37.7300 144.9460 268° West 183 211 2,600  Level FlightAware
09:14PM -37.7310 144.9160 268° West 168 193 2,600 -480 Level FlightAware
09:14PM -37.7320 144.8920 267° West 168 193 2,200 -1,140 Descending FlightAware
09:15PM -37.7330 144.8660 267° West 152 175 1,600 -1,080 Descending FlightAware
09:15PM -37.7300 144.8520 285° West 132 152 1,400 -960 Descending FlightAware
09:15PM -37.7250 144.8480 328° Northwest 124 143 1,200 -780 Descending FlightAware
09:15PM -37.7070 144.8450 352° North 127 146 900 -780 Descending FlightAware
09:16PM -37.6947 144.8428 352° North 127 146 600 -720 Descending Aus ATC (RADAR)
09:16PM -37.6940 144.8420 352° North 128 147 600  Level FlightAware